DLH1YN EDDM-LKPR
Flight info
| Callsign | DLH1YN |
|---|---|
| Flight time | 0h 36m |
| Altitude | 20000 |
| Route | AKINI1S AKINI Y104 MAMOR L132 AGNAV/N0378F190 DCT LOMKI |
| Aircraft | A321/M-SDE2E3FGIJ1LORWXYZ/HB1 |
Departure
| Time | 2026-05-06 19:04 |
|---|---|
| Airport | Munich Airport (EDDM) |
Arrival
| Time | 2026-05-06 19:41 |
|---|---|
| Airport | Václav Havel Airport Prague (LKPR) |
| Time | Latitude | Longitude | Altitude | Speed | Heading |
|---|---|---|---|---|---|
| 2026-05-06 18:31 | 48.35498 | 11.79297 | 1482 ft | 0 kts | 263° |
| 2026-05-06 18:49 | 48.35500 | 11.79332 | 1474 ft | 4 kts | 263° |
| 2026-05-06 18:49 | 48.35504 | 11.79372 | 1471 ft | 3 kts | 263° |
| 2026-05-06 18:49 | 48.35505 | 11.79405 | 1471 ft | 4 kts | 278° |
| 2026-05-06 18:49 | 48.35496 | 11.79438 | 1471 ft | 4 kts | 324° |
| 2026-05-06 18:50 | 48.35474 | 11.79450 | 1481 ft | 4 kts | 353° |
| 2026-05-06 18:50 | 48.35456 | 11.79454 | 1482 ft | 0 kts | 353° |
| 2026-05-06 18:58 | 48.35473 | 11.79451 | 1457 ft | 6 kts | 353° |
| 2026-05-06 18:58 | 48.35546 | 11.79438 | 1485 ft | 14 kts | 353° |
| 2026-05-06 18:58 | 48.35653 | 11.79418 | 1481 ft | 16 kts | 353° |
| 2026-05-06 18:59 | 48.35752 | 11.79402 | 1485 ft | 8 kts | 354° |
| 2026-05-06 18:59 | 48.35802 | 11.79394 | 1476 ft | 6 kts | 354° |
| 2026-05-06 18:59 | 48.35830 | 11.79390 | 1484 ft | 4 kts | 354° |
| 2026-05-06 18:59 | 48.35835 | 11.79389 | 1472 ft | 0 kts | 354° |
| 2026-05-06 19:00 | 48.35850 | 11.79387 | 1476 ft | 5 kts | 357° |
| 2026-05-06 19:00 | 48.35894 | 11.79418 | 1476 ft | 9 kts | 51° |
| 2026-05-06 19:01 | 48.35951 | 11.79497 | 1485 ft | 14 kts | 11° |
| 2026-05-06 19:01 | 48.36064 | 11.79485 | 1478 ft | 18 kts | 353° |
| 2026-05-06 19:01 | 48.36184 | 11.79476 | 1476 ft | 15 kts | 21° |
| 2026-05-06 19:01 | 48.36222 | 11.79593 | 1472 ft | 13 kts | 82° |
| 2026-05-06 19:02 | 48.36234 | 11.79743 | 1475 ft | 16 kts | 83° |
| 2026-05-06 19:02 | 48.36251 | 11.79952 | 1480 ft | 24 kts | 83° |
| 2026-05-06 19:02 | 48.36271 | 11.80211 | 1485 ft | 26 kts | 83° |
| 2026-05-06 19:02 | 48.36289 | 11.80452 | 1485 ft | 16 kts | 83° |
| 2026-05-06 19:03 | 48.36326 | 11.80507 | 1480 ft | 8 kts | 359° |
| 2026-05-06 19:03 | 48.36391 | 11.80394 | 1475 ft | 20 kts | 295° |
| 2026-05-06 19:03 | 48.36449 | 11.80197 | 1479 ft | 21 kts | 293° |
| 2026-05-06 19:03 | 48.36507 | 11.79978 | 1485 ft | 25 kts | 284° |
| 2026-05-06 19:04 | 48.36490 | 11.79462 | 1486 ft | 85 kts | 262° |
| 2026-05-06 19:04 | 48.36388 | 11.78237 | 1527 ft | 143 kts | 263° |
| 2026-05-06 19:04 | 48.36276 | 11.76762 | 2274 ft | 141 kts | 262° |
| 2026-05-06 19:04 | 48.36175 | 11.75293 | 3105 ft | 140 kts | 266° |
| 2026-05-06 19:05 | 48.36135 | 11.73892 | 3875 ft | 131 kts | 270° |
| 2026-05-06 19:05 | 48.36129 | 11.72540 | 4578 ft | 130 kts | 267° |
| 2026-05-06 19:05 | 48.36008 | 11.71082 | 4936 ft | 151 kts | 264° |
| 2026-05-06 19:05 | 48.35950 | 11.69398 | 5218 ft | 172 kts | 276° |
| 2026-05-06 19:06 | 48.36334 | 11.67597 | 5396 ft | 197 kts | 297° |
| 2026-05-06 19:06 | 48.37334 | 11.66012 | 5690 ft | 223 kts | 323° |
| 2026-05-06 19:06 | 48.38832 | 11.65192 | 6261 ft | 237 kts | 342° |
| 2026-05-06 19:06 | 48.40530 | 11.64648 | 6574 ft | 262 kts | 342° |
| 2026-05-06 19:07 | 48.42420 | 11.64380 | 6956 ft | 290 kts | 1° |
| 2026-05-06 19:07 | 48.43797 | 11.64940 | 7015 ft | 318 kts | 20° |
| 2026-05-06 19:07 | 48.46582 | 11.67104 | 7036 ft | 359 kts | 25° |
| 2026-05-06 19:07 | 48.48801 | 11.68978 | 7039 ft | 370 kts | 27° |
| 2026-05-06 19:08 | 48.51037 | 11.70918 | 7029 ft | 370 kts | 27° |
| 2026-05-06 19:08 | 48.53264 | 11.72853 | 7030 ft | 372 kts | 27° |
| 2026-05-06 19:08 | 48.55540 | 11.74800 | 7674 ft | 376 kts | 27° |
| 2026-05-06 19:08 | 48.57841 | 11.76748 | 8407 ft | 381 kts | 26° |
| 2026-05-06 19:09 | 48.60174 | 11.78711 | 9022 ft | 388 kts | 26° |
| 2026-05-06 19:09 | 48.62526 | 11.80683 | 9656 ft | 394 kts | 26° |
| 2026-05-06 19:09 | 48.64942 | 11.82705 | 10275 ft | 398 kts | 27° |
| 2026-05-06 19:09 | 48.67378 | 11.84741 | 10915 ft | 402 kts | 27° |
| 2026-05-06 19:10 | 48.69840 | 11.86804 | 11592 ft | 404 kts | 28° |
| 2026-05-06 19:10 | 48.72289 | 11.88861 | 12417 ft | 401 kts | 28° |
| 2026-05-06 19:10 | 48.74739 | 11.90923 | 13126 ft | 403 kts | 28° |
| 2026-05-06 19:10 | 48.77210 | 11.93004 | 13742 ft | 407 kts | 28° |
| 2026-05-06 19:11 | 48.79701 | 11.95104 | 14305 ft | 411 kts | 28° |
| 2026-05-06 19:11 | 48.82182 | 11.97202 | 14842 ft | 415 kts | 28° |
| 2026-05-06 19:11 | 48.84718 | 11.99353 | 15378 ft | 418 kts | 29° |
| 2026-05-06 19:11 | 48.87262 | 12.01516 | 15918 ft | 421 kts | 29° |
| 2026-05-06 19:12 | 48.89830 | 12.03698 | 16450 ft | 424 kts | 29° |
| 2026-05-06 19:12 | 48.92414 | 12.05892 | 16984 ft | 427 kts | 29° |
| 2026-05-06 19:12 | 48.95024 | 12.08112 | 17489 ft | 431 kts | 29° |
| 2026-05-06 19:12 | 48.97650 | 12.10349 | 17956 ft | 434 kts | 29° |
| 2026-05-06 19:13 | 49.00301 | 12.12609 | 18406 ft | 438 kts | 29° |
| 2026-05-06 19:13 | 49.02972 | 12.14891 | 18718 ft | 440 kts | 29° |
| 2026-05-06 19:13 | 49.05648 | 12.17184 | 18809 ft | 440 kts | 29° |
| 2026-05-06 19:13 | 49.08295 | 12.19451 | 18807 ft | 440 kts | 29° |
| 2026-05-06 19:14 | 49.10977 | 12.21747 | 18928 ft | 439 kts | 28° |
| 2026-05-06 19:14 | 49.13650 | 12.24037 | 19162 ft | 441 kts | 28° |
| 2026-05-06 19:14 | 49.16336 | 12.26341 | 19401 ft | 442 kts | 28° |
| 2026-05-06 19:14 | 49.18990 | 12.28624 | 19641 ft | 444 kts | 28° |
| 2026-05-06 19:15 | 49.21719 | 12.30978 | 19770 ft | 446 kts | 28° |
| 2026-05-06 19:15 | 49.24391 | 12.33285 | 19790 ft | 446 kts | 28° |
| 2026-05-06 19:15 | 49.27103 | 12.35628 | 19788 ft | 446 kts | 28° |
| 2026-05-06 19:15 | 49.29803 | 12.37967 | 19789 ft | 446 kts | 28° |
| 2026-05-06 19:16 | 49.32463 | 12.40439 | 19785 ft | 446 kts | 36° |
| 2026-05-06 19:16 | 49.34800 | 12.43560 | 19786 ft | 445 kts | 42° |
| 2026-05-06 19:16 | 49.37088 | 12.46773 | 19786 ft | 446 kts | 42° |
| 2026-05-06 19:16 | 49.38619 | 12.48929 | 19789 ft | 455 kts | 42° |
| 2026-05-06 19:17 | 49.40975 | 12.52257 | 19784 ft | 463 kts | 42° |
| 2026-05-06 19:17 | 49.43353 | 12.55627 | 19783 ft | 465 kts | 42° |
| 2026-05-06 19:17 | 49.45734 | 12.59009 | 19783 ft | 466 kts | 42° |
| 2026-05-06 19:17 | 49.48112 | 12.62393 | 19765 ft | 467 kts | 43° |
| 2026-05-06 19:18 | 49.50507 | 12.65806 | 19784 ft | 470 kts | 43° |
| 2026-05-06 19:18 | 49.52914 | 12.69244 | 19777 ft | 470 kts | 43° |
| 2026-05-06 19:18 | 49.55308 | 12.72667 | 19777 ft | 470 kts | 43° |
| 2026-05-06 19:18 | 49.57705 | 12.76097 | 19777 ft | 470 kts | 43° |
| 2026-05-06 19:19 | 49.60078 | 12.79498 | 19777 ft | 470 kts | 43° |
| 2026-05-06 19:19 | 49.62481 | 12.82945 | 19774 ft | 470 kts | 43° |
| 2026-05-06 19:19 | 49.64887 | 12.86395 | 19723 ft | 472 kts | 43° |
| 2026-05-06 19:19 | 49.67298 | 12.89854 | 19467 ft | 472 kts | 43° |
| 2026-05-06 19:20 | 49.69678 | 12.93273 | 19229 ft | 471 kts | 43° |
| 2026-05-06 19:20 | 49.72071 | 12.96721 | 18989 ft | 470 kts | 43° |
| 2026-05-06 19:20 | 49.74457 | 13.00175 | 18748 ft | 468 kts | 43° |
| 2026-05-06 19:20 | 49.76827 | 13.03616 | 18509 ft | 466 kts | 43° |
| 2026-05-06 19:21 | 49.79196 | 13.07055 | 18269 ft | 464 kts | 43° |
| 2026-05-06 19:21 | 49.81545 | 13.10462 | 18031 ft | 462 kts | 43° |
| 2026-05-06 19:21 | 49.83895 | 13.13868 | 17767 ft | 460 kts | 43° |
| 2026-05-06 19:21 | 49.86106 | 13.17357 | 17497 ft | 458 kts | 50° |
| 2026-05-06 19:22 | 49.87927 | 13.21389 | 17228 ft | 455 kts | 61° |
| 2026-05-06 19:22 | 49.89270 | 13.25832 | 16968 ft | 452 kts | 71° |
| 2026-05-06 19:22 | 49.90115 | 13.30507 | 16752 ft | 449 kts | 81° |
| 2026-05-06 19:22 | 49.90458 | 13.35308 | 16774 ft | 446 kts | 90° |
| 2026-05-06 19:23 | 49.90376 | 13.40106 | 16606 ft | 442 kts | 95° |
| 2026-05-06 19:23 | 49.90220 | 13.44784 | 16368 ft | 422 kts | 95° |
| 2026-05-06 19:23 | 49.90110 | 13.49220 | 16237 ft | 403 kts | 91° |
| 2026-05-06 19:23 | 49.90369 | 13.53379 | 16103 ft | 379 kts | 81° |
| 2026-05-06 19:24 | 49.91009 | 13.57201 | 15971 ft | 355 kts | 72° |
| 2026-05-06 19:24 | 49.91947 | 13.60618 | 15841 ft | 334 kts | 64° |
| 2026-05-06 19:24 | 49.93102 | 13.63635 | 15632 ft | 317 kts | 58° |
| 2026-05-06 19:24 | 49.94282 | 13.66490 | 15183 ft | 310 kts | 58° |
| 2026-05-06 19:25 | 49.95436 | 13.69304 | 14671 ft | 307 kts | 58° |
| 2026-05-06 19:25 | 49.96576 | 13.72092 | 14157 ft | 304 kts | 59° |
| 2026-05-06 19:25 | 49.97700 | 13.74857 | 13660 ft | 302 kts | 59° |
| 2026-05-06 19:25 | 49.98820 | 13.77605 | 13104 ft | 299 kts | 58° |
| 2026-05-06 19:26 | 49.99920 | 13.80305 | 12793 ft | 296 kts | 58° |
| 2026-05-06 19:26 | 50.01021 | 13.83006 | 12763 ft | 297 kts | 58° |
| 2026-05-06 19:26 | 50.02131 | 13.85729 | 12768 ft | 298 kts | 58° |
| 2026-05-06 19:26 | 50.03243 | 13.88459 | 12770 ft | 298 kts | 58° |
| 2026-05-06 19:27 | 50.04355 | 13.91189 | 12774 ft | 298 kts | 58° |
| 2026-05-06 19:27 | 50.05445 | 13.93865 | 12768 ft | 285 kts | 58° |
| 2026-05-06 19:27 | 50.06555 | 13.96371 | 12709 ft | 277 kts | 45° |
| 2026-05-06 19:27 | 50.08135 | 13.98019 | 12713 ft | 275 kts | 15° |
| 2026-05-06 19:28 | 50.09999 | 13.98335 | 12717 ft | 266 kts | 346° |
| 2026-05-06 19:28 | 50.11755 | 13.97603 | 12715 ft | 264 kts | 336° |
| 2026-05-06 19:28 | 50.13480 | 13.96659 | 12496 ft | 261 kts | 335° |
| 2026-05-06 19:28 | 50.15192 | 13.95691 | 11990 ft | 261 kts | 335° |
| 2026-05-06 19:29 | 50.16899 | 13.94717 | 11527 ft | 260 kts | 335° |
| 2026-05-06 19:29 | 50.18482 | 13.93476 | 11083 ft | 249 kts | 314° |
| 2026-05-06 19:29 | 50.19687 | 13.91574 | 10601 ft | 244 kts | 306° |
| 2026-05-06 19:29 | 50.20539 | 13.89358 | 10147 ft | 236 kts | 288° |
| 2026-05-06 19:30 | 50.21124 | 13.86973 | 9687 ft | 234 kts | 285° |
| 2026-05-06 19:30 | 50.21665 | 13.84571 | 9208 ft | 233 kts | 285° |
| 2026-05-06 19:30 | 50.22185 | 13.82215 | 8814 ft | 229 kts | 285° |
| 2026-05-06 19:30 | 50.22698 | 13.79868 | 8368 ft | 230 kts | 285° |
| 2026-05-06 19:31 | 50.23205 | 13.77500 | 7854 ft | 230 kts | 285° |
| 2026-05-06 19:31 | 50.23702 | 13.75125 | 7394 ft | 230 kts | 286° |
| 2026-05-06 19:31 | 50.25927 | 13.71828 | 6776 ft | 235 kts | 350° |
| 2026-05-06 19:32 | 50.27560 | 13.72093 | 6772 ft | 241 kts | 23° |
| 2026-05-06 19:32 | 50.28896 | 13.73654 | 6776 ft | 243 kts | 50° |
| 2026-05-06 19:32 | 50.29672 | 13.75962 | 6771 ft | 241 kts | 82° |
| 2026-05-06 19:32 | 50.29767 | 13.78568 | 6774 ft | 240 kts | 94° |
| 2026-05-06 19:33 | 50.29704 | 13.81177 | 6770 ft | 240 kts | 95° |
| 2026-05-06 19:33 | 50.29618 | 13.83704 | 6778 ft | 226 kts | 97° |
| 2026-05-06 19:33 | 50.29222 | 13.85947 | 6756 ft | 206 kts | 121° |
| 2026-05-06 19:33 | 50.28413 | 13.87760 | 6773 ft | 202 kts | 130° |
| 2026-05-06 19:34 | 50.27571 | 13.89532 | 6582 ft | 201 kts | 129° |
| 2026-05-06 19:34 | 50.26740 | 13.91280 | 6341 ft | 200 kts | 130° |
| 2026-05-06 19:34 | 50.25909 | 13.93027 | 6079 ft | 199 kts | 130° |
| 2026-05-06 19:34 | 50.25089 | 13.94747 | 5813 ft | 195 kts | 130° |
| 2026-05-06 19:35 | 50.24288 | 13.96427 | 5567 ft | 189 kts | 130° |
| 2026-05-06 19:35 | 50.23519 | 13.98037 | 5302 ft | 185 kts | 129° |
| 2026-05-06 19:35 | 50.22758 | 13.99629 | 5051 ft | 181 kts | 129° |
| 2026-05-06 19:35 | 50.22010 | 14.01194 | 4816 ft | 178 kts | 128° |
| 2026-05-06 19:36 | 50.21273 | 14.02734 | 4587 ft | 176 kts | 128° |
| 2026-05-06 19:36 | 50.20542 | 14.04262 | 4351 ft | 175 kts | 128° |
| 2026-05-06 19:36 | 50.19810 | 14.05791 | 4112 ft | 176 kts | 128° |
| 2026-05-06 19:36 | 50.19079 | 14.07316 | 3878 ft | 175 kts | 127° |
| 2026-05-06 19:37 | 50.18348 | 14.08841 | 3650 ft | 175 kts | 127° |
| 2026-05-06 19:37 | 50.17620 | 14.10358 | 3429 ft | 174 kts | 126° |
| 2026-05-06 19:37 | 50.16905 | 14.11848 | 3209 ft | 168 kts | 126° |
| 2026-05-06 19:37 | 50.16228 | 14.13257 | 2976 ft | 160 kts | 125° |
| 2026-05-06 19:38 | 50.15573 | 14.14619 | 2773 ft | 154 kts | 126° |
| 2026-05-06 19:38 | 50.14939 | 14.15939 | 2556 ft | 151 kts | 124° |
| 2026-05-06 19:38 | 50.14314 | 14.17238 | 2375 ft | 148 kts | 123° |
| 2026-05-06 19:38 | 50.13700 | 14.18515 | 2176 ft | 147 kts | 124° |
| 2026-05-06 19:39 | 50.13093 | 14.19775 | 1971 ft | 144 kts | 124° |
| 2026-05-06 19:39 | 50.12492 | 14.21022 | 1761 ft | 142 kts | 124° |
| 2026-05-06 19:39 | 50.11904 | 14.22248 | 1542 ft | 140 kts | 124° |
| 2026-05-06 19:39 | 50.11316 | 14.23484 | 1376 ft | 142 kts | 126° |
| 2026-05-06 19:40 | 50.10716 | 14.24690 | 1210 ft | 140 kts | 125° |
| 2026-05-06 19:40 | 50.10175 | 14.25831 | 1188 ft | 113 kts | 127° |
| 2026-05-06 19:40 | 50.09808 | 14.26598 | 1214 ft | 67 kts | 126° |
| 2026-05-06 19:40 | 50.09554 | 14.27130 | 1215 ft | 57 kts | 127° |
| 2026-05-06 19:41 | 50.09437 | 14.27446 | 1218 ft | 18 kts | 72° |
| 2026-05-06 19:41 | 50.09531 | 14.27570 | 1212 ft | 13 kts | 35° |
| 2026-05-06 19:41 | 50.09556 | 14.27597 | 1211 ft | 0 kts | 35° |
| 2026-05-06 19:42 | 50.09561 | 14.27602 | 1211 ft | 0 kts | 35° |
| 2026-05-06 19:43 | 50.09585 | 14.27627 | 1210 ft | 11 kts | 29° |
| 2026-05-06 19:43 | 50.09682 | 14.27577 | 1207 ft | 19 kts | 318° |
| 2026-05-06 19:43 | 50.09784 | 14.27425 | 1206 ft | 22 kts | 316° |
| 2026-05-06 19:43 | 50.09898 | 14.27232 | 1204 ft | 26 kts | 308° |
| 2026-05-06 19:44 | 50.10010 | 14.26996 | 1204 ft | 29 kts | 306° |
| 2026-05-06 19:44 | 50.10113 | 14.26781 | 1199 ft | 18 kts | 306° |
| 2026-05-06 19:44 | 50.10173 | 14.26655 | 1197 ft | 11 kts | 307° |
| 2026-05-06 19:44 | 50.10213 | 14.26573 | 1196 ft | 10 kts | 307° |
| 2026-05-06 19:45 | 50.10263 | 14.26473 | 1194 ft | 13 kts | 308° |
| 2026-05-06 19:45 | 50.10329 | 14.26337 | 1191 ft | 18 kts | 307° |
| 2026-05-06 19:45 | 50.10409 | 14.26168 | 1188 ft | 14 kts | 306° |
| 2026-05-06 19:45 | 50.10457 | 14.26131 | 1185 ft | 10 kts | 14° |
| 2026-05-06 19:46 | 50.10525 | 14.26218 | 1175 ft | 14 kts | 70° |
| 2026-05-06 19:46 | 50.10485 | 14.26358 | 1176 ft | 15 kts | 124° |
| 2026-05-06 19:46 | 50.10419 | 14.26500 | 1177 ft | 16 kts | 132° |
| 2026-05-06 19:46 | 50.10354 | 14.26636 | 1177 ft | 13 kts | 124° |
| 2026-05-06 19:47 | 50.10343 | 14.26712 | 1178 ft | 7 kts | 50° |
| 2026-05-06 19:47 | 50.10361 | 14.26734 | 1175 ft | 2 kts | 37° |
| 2026-05-06 19:47 | 50.10368 | 14.26741 | 1176 ft | 0 kts | 36° |